Time;durP1;ratioP1;P1;durP2;ratioP2;P2;SDS_P1;SDS_P2;PMS_P1;PMS_P2;Temp;Humidity;BMP_temperature;BMP_pressure;BME280_temperature;BME280_humidity;BME280_pressure;Samples;Min_cycle;Max_cycle;Signal;HPM_P1;HPM_P2
2023/08/11 00:01:29;;;;;;;1.60;1.40;;;21.10;91.10;;;;;;4941773;28;20030;-82
2023/08/11 00:03:55;;;;;;;2.72;1.50;;;21.00;91.10;;;;;;4958996;28;20026;-84
2023/08/11 00:06:21;;;;;;;1.40;1.30;;;21.00;91.10;;;;;;4939445;28;20444;-82
2023/08/11 00:08:47;;;;;;;1.75;1.50;;;20.90;91.10;;;;;;4959115;28;20042;-84
2023/08/11 00:11:13;;;;;;;1.97;1.47;;;20.90;91.20;;;;;;4941506;28;20034;-83
2023/08/11 00:13:38;;;;;;;1.95;1.50;;;20.80;91.20;;;;;;4962639;28;20057;-83
2023/08/11 00:16:04;;;;;;;1.63;1.33;;;20.80;91.30;;;;;;4937693;28;20261;-83
2023/08/11 00:18:30;;;;;;;1.90;1.20;;;20.70;91.30;;;;;;4948195;28;20975;-81
2023/08/11 00:20:56;;;;;;;2.45;1.48;;;20.70;91.40;;;;;;4952937;28;20105;-84
2023/08/11 00:23:24;;;;;;;1.55;1.30;;;20.60;91.40;;;;;;4960908;28;20036;-83
2023/08/11 00:25:50;;;;;;;1.75;1.30;;;20.60;91.40;;;;;;4927456;28;20053;-84
2023/08/11 00:28:16;;;;;;;1.60;1.27;;;20.60;91.50;;;;;;4944157;28;20035;-81
2023/08/11 00:30:42;;;;;;;1.50;1.30;;;20.50;91.50;;;;;;4942035;28;20031;-81
2023/08/11 00:33:07;;;;;;;2.10;1.40;;;20.50;91.70;;;;;;4927084;28;20193;-81
2023/08/11 00:35:33;;;;;;;2.30;1.50;;;20.40;91.50;;;;;;4955922;28;20033;-82
2023/08/11 00:37:59;;;;;;;2.33;1.40;;;20.40;91.60;;;;;;4972043;28;20062;-84
2023/08/11 00:40:24;;;;;;;1.93;1.40;;;20.40;91.60;;;;;;4958286;28;20037;-82
2023/08/11 00:42:50;;;;;;;1.70;1.20;;;20.30;91.70;;;;;;4940292;28;20037;-84
2023/08/11 00:45:17;;;;;;;1.65;1.10;;;20.20;91.70;;;;;;4953138;28;20311;-82
2023/08/11 00:47:43;;;;;;;2.13;1.60;;;20.30;91.70;;;;;;4921299;28;20046;-84
2023/08/11 00:50:11;;;;;;;2.00;1.20;;;20.20;91.70;;;;;;4940508;28;20460;-82
2023/08/11 00:52:38;;;;;;;2.85;1.30;;;20.20;91.80;;;;;;4957548;28;20030;-82
2023/08/11 00:55:07;;;;;;;1.77;1.33;;;20.20;91.80;;;;;;4934075;28;20212;-81
2023/08/11 00:57:34;;;;;;;1.50;1.30;;;20.10;91.80;;;;;;4954949;28;20015;-82
2023/08/11 01:00:15;;;;;;;2.22;1.30;;;20.10;91.90;;;;;;4961997;28;20037;-84
2023/08/11 01:02:42;;;;;;;1.60;1.20;;;20.00;91.90;;;;;;4934267;28;20042;-85
2023/08/11 01:05:14;;;;;;;3.40;1.25;;;20.00;91.90;;;;;;4954437;28;20241;-81
2023/08/11 01:08:21;;;;;;;2.38;1.50;;;20.00;92.00;;;;;;4961647;28;20026;-82
2023/08/11 01:11:19;;;;;;;1.83;1.30;;;19.90;92.10;;;;;;4936051;28;20077;-84
2023/08/11 01:13:57;;;;;;;1.60;1.30;;;19.90;92.00;;;;;;4954686;28;20162;-84
2023/08/11 01:16:24;;;;;;;1.53;1.10;;;;;;;;;;4964518;28;20049;-83
2023/08/11 01:18:50;;;;;;;1.83;1.20;;;19.70;91.80;;;;;;4934285;28;20058;-84
2023/08/11 01:21:17;;;;;;;2.38;1.40;;;18.40;92.70;;;;;;4959397;28;20054;-81
2023/08/11 01:23:43;;;;;;;1.40;1.20;;;19.70;92.20;;;;;;4948870;28;20038;-85
2023/08/11 01:26:11;;;;;;;1.70;1.37;;;19.70;92.20;;;;;;4933104;28;20638;-82
2023/08/11 01:28:37;;;;;;;2.15;1.40;;;19.70;92.30;;;;;;4963341;28;20473;-81
2023/08/11 01:31:03;;;;;;;1.52;1.25;;;19.70;92.30;;;;;;4939526;28;20239;-82
2023/08/11 01:33:29;;;;;;;1.48;1.13;;;19.60;92.30;;;;;;4943900;28;20039;-81
2023/08/11 01:35:54;;;;;;;1.23;1.13;;;19.60;92.30;;;;;;4949324;28;20381;-84
2023/08/11 01:38:20;;;;;;;1.80;1.40;;;19.60;92.30;;;;;;4961081;28;20451;-81
2023/08/11 01:40:47;;;;;;;2.53;1.23;;;19.50;92.30;;;;;;4960146;28;20030;-84
2023/08/11 01:43:15;;;;;;;1.48;1.20;;;19.50;92.40;;;;;;4955307;28;20035;-82
2023/08/11 01:45:43;;;;;;;1.95;1.30;;;19.40;92.40;;;;;;4954940;28;20471;-81
2023/08/11 01:48:10;;;;;;;1.42;1.15;;;19.40;92.40;;;;;;4949241;28;20101;-81
2023/08/11 01:50:37;;;;;;;1.77;1.30;;;19.40;92.20;;;;;;4940827;28;20040;-82
2023/08/11 01:53:03;;;;;;;2.15;1.40;;;19.30;92.50;;;;;;4973221;28;20265;-82
2023/08/11 01:55:29;;;;;;;2.25;1.30;;;19.30;92.50;;;;;;4944611;28;20034;-83
2023/08/11 01:57:55;;;;;;;1.80;1.20;;;19.30;92.50;;;;;;4960987;28;20031;-84
2023/08/11 02:00:21;;;;;;;2.33;1.50;;;19.30;92.50;;;;;;4960455;28;20101;-82
2023/08/11 02:02:47;;;;;;;2.40;1.70;;;19.20;92.60;;;;;;4954765;28;20043;-84
2023/08/11 02:05:15;;;;;;;1.70;1.40;;;19.20;92.70;;;;;;4938599;28;20050;-82
2023/08/11 02:07:42;;;;;;;1.60;1.30;;;19.30;92.70;;;;;;4968252;28;20041;-84
2023/08/11 02:10:09;;;;;;;2.50;1.50;;;19.20;92.70;;;;;;4935356;28;20069;-82
2023/08/11 02:12:37;;;;;;;2.67;1.50;;;19.10;92.70;;;;;;4961663;28;20531;-82
2023/08/11 02:15:05;;;;;;;2.35;1.20;;;19.10;92.80;;;;;;4969964;28;20034;-84
2023/08/11 02:17:31;;;;;;;1.65;1.25;;;19.10;92.80;;;;;;4968298;28;20547;-82
2023/08/11 02:19:58;;;;;;;1.65;1.30;;;19.00;92.80;;;;;;4960627;28;20026;-84
2023/08/11 02:22:24;;;;;;;2.25;1.52;;;19.00;92.80;;;;;;4961625;28;20556;-81
2023/08/11 02:24:50;;;;;;;2.50;1.40;;;19.00;92.90;;;;;;4945035;28;20033;-84
2023/08/11 02:27:17;;;;;;;2.50;1.35;;;19.00;92.90;;;;;;4943656;28;20460;-81
2023/08/11 02:29:44;;;;;;;3.38;1.30;;;18.90;92.90;;;;;;4952396;28;20030;-83
2023/08/11 02:32:11;;;;;;;1.80;1.20;;;18.90;93.00;;;;;;4939506;28;20022;-82
2023/08/11 02:34:37;;;;;;;1.60;1.30;;;;;;;;;;4949210;28;20396;-82
2023/08/11 02:37:03;;;;;;;1.90;1.40;;;18.90;92.80;;;;;;4931338;28;20022;-82
2023/08/11 02:39:29;;;;;;;1.73;1.30;;;18.80;93.10;;;;;;4966226;28;20030;-82
2023/08/11 02:41:55;;;;;;;1.85;1.45;;;18.80;93.10;;;;;;4971863;28;20037;-85
2023/08/11 02:44:22;;;;;;;1.50;1.30;;;18.80;93.10;;;;;;4979716;28;20225;-82
2023/08/11 02:46:48;;;;;;;1.90;1.23;;;18.80;93.20;;;;;;4955428;28;20027;-84
2023/08/11 02:49:13;;;;;;;2.28;1.35;;;18.80;93.20;;;;;;4949966;28;20603;-81
2023/08/11 02:51:39;;;;;;;1.92;1.30;;;18.80;93.30;;;;;;4932431;28;20324;-82
2023/08/11 02:54:05;;;;;;;1.60;1.33;;;18.70;93.30;;;;;;4956095;28;20078;-81
2023/08/11 02:56:31;;;;;;;1.52;1.33;;;18.70;93.30;;;;;;4945696;28;20056;-83
2023/08/11 02:58:58;;;;;;;1.83;1.47;;;18.60;93.30;;;;;;4939538;28;20459;-84
2023/08/11 03:01:27;;;;;;;2.60;1.50;;;18.60;93.30;;;;;;4960250;28;20512;-81
2023/08/11 03:03:53;;;;;;;1.65;1.40;;;18.60;93.40;;;;;;4978929;28;20413;-84
2023/08/11 03:06:18;;;;;;;1.60;1.23;;;19.50;94.60;;;;;;4928997;28;20054;-81
2023/08/11 03:08:44;;;;;;;1.75;1.40;;;18.60;93.40;;;;;;4950768;28;20452;-84
2023/08/11 03:11:10;;;;;;;1.87;1.40;;;18.50;93.40;;;;;;4959313;28;20167;-82
2023/08/11 03:13:36;;;;;;;2.65;1.30;;;18.50;93.40;;;;;;4945696;28;20034;-81
2023/08/11 03:16:02;;;;;;;1.45;1.25;;;18.50;93.40;;;;;;4957687;28;20076;-83
2023/08/11 03:18:28;;;;;;;1.40;1.10;;;18.50;93.40;;;;;;4958332;28;20039;-81
2023/08/11 03:20:54;;;;;;;1.67;1.30;;;18.50;93.50;;;;;;4965153;28;21079;-85
2023/08/11 03:23:20;;;;;;;2.60;1.40;;;18.40;93.50;;;;;;4933284;28;20034;-81
2023/08/11 03:25:46;;;;;;;1.83;1.40;;;18.40;93.50;;;;;;4967871;28;20022;-84
2023/08/11 03:28:12;;;;;;;2.07;1.40;;;18.40;93.50;;;;;;4949719;28;21873;-81
2023/08/11 03:30:38;;;;;;;3.00;1.38;;;18.40;93.60;;;;;;4946768;28;20047;-81
2023/08/11 03:33:03;;;;;;;2.20;1.50;;;17.90;94.30;;;;;;4936286;28;20143;-81
2023/08/11 03:35:32;;;;;;;2.13;1.20;;;18.30;93.60;;;;;;4966948;28;20133;-82
2023/08/11 03:37:58;;;;;;;1.53;1.20;;;18.30;93.60;;;;;;4929594;28;20118;-84
2023/08/11 03:40:24;;;;;;;1.70;1.25;;;18.30;93.60;;;;;;4949137;28;20575;-82
2023/08/11 03:42:49;;;;;;;1.67;1.23;;;18.20;93.60;;;;;;4958775;28;20046;-84
2023/08/11 03:45:15;;;;;;;1.40;1.20;;;18.20;93.60;;;;;;4954179;28;20125;-82
2023/08/11 03:47:42;;;;;;;2.03;1.40;;;18.20;93.60;;;;;;4957046;28;20030;-83
2023/08/11 03:50:09;;;;;;;1.70;1.40;;;18.20;93.70;;;;;;4953932;28;20230;-83
2023/08/11 03:52:36;;;;;;;3.00;1.70;;;18.10;93.70;;;;;;4953498;28;20038;-82
2023/08/11 03:55:03;;;;;;;2.20;1.45;;;18.10;93.70;;;;;;4944704;28;20441;-83
2023/08/11 03:57:28;;;;;;;1.55;1.30;;;18.10;93.80;;;;;;4963378;28;20034;-82
2023/08/11 03:59:54;;;;;;;2.40;1.60;;;18.10;93.80;;;;;;4951998;28;20396;-84
2023/08/11 04:02:20;;;;;;;2.23;1.43;;;18.10;93.80;;;;;;4955800;28;20623;-83
2023/08/11 04:04:46;;;;;;;1.88;1.50;;;18.00;93.80;;;;;;4945512;28;20073;-84
2023/08/11 04:07:12;;;;;;;1.50;1.37;;;18.00;93.80;;;;;;4954721;28;20242;-81
2023/08/11 04:09:43;;;;;;;1.60;1.20;;;18.00;93.90;;;;;;4929938;28;20440;-83
2023/08/11 04:12:10;;;;;;;1.58;1.25;;;18.00;93.90;;;;;;4965886;28;20587;-83
2023/08/11 04:14:39;;;;;;;2.60;1.48;;;18.00;94.00;;;;;;4974911;28;20033;-83
2023/08/11 04:17:05;;;;;;;1.88;1.38;;;17.90;94.00;;;;;;4970484;28;20019;-81
2023/08/11 04:19:32;;;;;;;1.77;1.47;;;17.90;94.00;;;;;;4942868;28;20036;-82
2023/08/11 04:21:57;;;;;;;1.85;1.52;;;17.90;94.00;;;;;;4960401;28;20038;-84
2023/08/11 04:24:23;;;;;;;2.08;1.60;;;18.00;94.90;;;;;;4930454;28;20018;-82
2023/08/11 04:26:51;;;;;;;2.23;1.40;;;17.80;94.10;;;;;;4979610;28;20504;-84
2023/08/11 04:29:17;;;;;;;2.00;1.40;;;18.80;95.90;;;;;;4959636;28;20401;-82
2023/08/11 04:31:43;;;;;;;2.47;1.70;;;17.80;94.20;;;;;;4959711;28;20544;-83
2023/08/11 04:34:10;;;;;;;2.22;1.38;;;17.80;95.70;;;;;;4940412;28;20108;-82
2023/08/11 04:36:37;;;;;;;2.47;1.50;;;17.80;94.30;;;;;;4946093;28;20038;-82
2023/08/11 04:39:03;;;;;;;1.90;1.30;;;17.30;95.10;;;;;;4926516;28;21016;-84
2023/08/11 04:41:29;;;;;;;2.03;1.52;;;17.80;94.30;;;;;;4957784;28;20515;-82
2023/08/11 04:43:55;;;;;;;2.20;1.70;;;17.80;94.40;;;;;;4943548;28;20022;-84
2023/08/11 04:46:20;;;;;;;1.83;1.47;;;17.80;94.40;;;;;;4961560;28;20050;-82
2023/08/11 04:48:46;;;;;;;3.80;1.50;;;17.80;94.50;;;;;;4955011;28;20031;-85
2023/08/11 04:51:12;;;;;;;2.07;1.57;;;17.80;94.50;;;;;;4951468;28;20026;-81
2023/08/11 04:53:38;;;;;;;2.40;1.60;;;17.80;94.60;;;;;;4982352;28;20084;-81
2023/08/11 04:56:04;;;;;;;3.00;1.67;;;;;;;;;;4940432;28;20030;-82
2023/08/11 04:58:30;;;;;;;2.17;1.60;;;17.80;94.40;;;;;;4948057;28;20030;-82
2023/08/11 05:00:55;;;;;;;2.08;1.50;;;17.80;94.70;;;;;;4942066;28;20128;-84
2023/08/11 05:03:22;;;;;;;3.47;1.73;;;;;;;;;;4947815;28;20080;-82
2023/08/11 05:05:47;;;;;;;2.80;1.70;;;17.80;94.60;;;;;;4930987;28;20650;-81
2023/08/11 05:08:13;;;;;;;2.05;1.60;;;17.80;94.90;;;;;;4945915;28;20454;-81
2023/08/11 05:10:39;;;;;;;2.30;1.60;;;17.60;95.90;;;;;;4933347;28;20033;-85
2023/08/11 05:13:05;;;;;;;3.38;1.70;;;17.80;95.00;;;;;;4964415;28;20033;-82
2023/08/11 05:15:30;;;;;;;2.50;1.80;;;17.80;95.00;;;;;;4944375;28;20026;-84
2023/08/11 05:17:56;;;;;;;2.08;1.60;;;17.80;95.10;;;;;;4931124;28;20141;-84
2023/08/11 05:20:23;;;;;;;2.40;1.60;;;17.90;95.20;;;;;;4943092;28;20034;-83
2023/08/11 05:22:49;;;;;;;2.53;1.50;;;17.90;95.30;;;;;;4931040;28;20045;-82
2023/08/11 05:25:14;;;;;;;1.92;1.50;;;17.90;95.30;;;;;;4935126;28;20031;-81
2023/08/11 05:27:40;;;;;;;2.30;1.55;;;18.00;95.40;;;;;;4940238;28;20042;-84
2023/08/11 05:30:08;;;;;;;1.90;1.30;;;18.00;95.50;;;;;;4979869;28;20443;-83
2023/08/11 05:32:34;;;;;;;1.85;1.30;;;18.00;95.60;;;;;;4943051;28;20038;-84
2023/08/11 05:35:00;;;;;;;2.22;1.50;;;18.00;95.70;;;;;;4938337;28;20245;-81
2023/08/11 05:37:25;;;;;;;1.73;1.30;;;18.10;95.70;;;;;;4955440;28;20042;-84
2023/08/11 05:39:52;;;;;;;2.10;1.33;;;15.40;96.60;;;;;;4973015;28;20600;-81
2023/08/11 05:42:19;;;;;;;2.10;1.40;;;18.20;95.70;;;;;;4930365;28;20030;-82
2023/08/11 05:44:44;;;;;;;1.90;1.20;;;18.20;96.00;;;;;;4944852;28;20582;-81
2023/08/11 05:47:10;;;;;;;1.83;1.30;;;18.30;96.10;;;;;;4956195;28;20026;-83
2023/08/11 05:49:36;;;;;;;2.43;1.30;;;18.30;96.20;;;;;;4953212;28;20034;-84
2023/08/11 05:52:02;;;;;;;2.30;1.30;;;18.40;96.30;;;;;;4937037;28;20300;-82
2023/08/11 05:54:27;;;;;;;3.00;1.48;;;18.40;96.30;;;;;;4948582;28;20026;-83
2023/08/11 05:56:54;;;;;;;1.30;1.10;;;18.40;96.40;;;;;;4950514;28;20458;-83
2023/08/11 05:59:21;;;;;;;2.28;1.40;;;18.50;96.50;;;;;;4940334;28;20038;-82
2023/08/11 06:01:47;;;;;;;1.52;1.25;;;18.60;96.60;;;;;;4953131;28;20107;-81
2023/08/11 06:04:13;;;;;;;1.65;1.20;;;18.70;96.70;;;;;;4939473;28;20069;-82
2023/08/11 06:06:39;;;;;;;2.07;1.30;;;20.40;97.80;;;;;;4927121;28;20129;-84
2023/08/11 06:09:05;;;;;;;1.88;1.25;;;18.80;96.80;;;;;;4977021;28;20063;-81
2023/08/11 06:11:31;;;;;;;2.60;1.50;;;18.90;96.80;;;;;;4956444;28;20339;-84
2023/08/11 06:13:56;;;;;;;1.73;1.40;;;18.90;96.90;;;;;;4921039;28;20267;-83
2023/08/11 06:16:22;;;;;;;2.05;1.20;;;19.10;97.00;;;;;;4945337;28;20057;-84
2023/08/11 06:18:48;;;;;;;2.15;1.23;;;;;;;;;;4955735;28;20030;-82
2023/08/11 06:21:17;;;;;;;1.47;1.20;;;19.20;96.80;;;;;;4943978;28;20080;-82
2023/08/11 06:23:43;;;;;;;1.75;1.27;;;19.30;97.00;;;;;;4955963;28;20044;-83
2023/08/11 06:26:09;;;;;;;2.72;1.27;;;19.40;97.10;;;;;;4950791;28;20484;-81
2023/08/11 06:28:35;;;;;;;1.88;1.30;;;19.50;97.10;;;;;;4931731;28;20197;-83
2023/08/11 06:31:02;;;;;;;3.80;1.43;;;19.50;97.20;;;;;;4952341;28;20037;-82
2023/08/11 06:33:27;;;;;;;1.83;1.25;;;19.60;97.30;;;;;;4953993;28;20022;-83
2023/08/11 06:35:53;;;;;;;1.42;1.10;;;19.70;97.30;;;;;;4945473;28;20026;-85
2023/08/11 06:38:19;;;;;;;2.03;1.20;;;19.80;97.30;;;;;;4959311;28;20042;-82
2023/08/11 06:40:45;;;;;;;1.77;1.60;;;;;;;;;;4951621;28;20018;-84
2023/08/11 06:43:11;;;;;;;1.63;1.17;;;20.00;97.20;;;;;;4943880;28;20509;-83
2023/08/11 06:45:37;;;;;;;1.90;1.20;;;20.00;97.40;;;;;;4932259;28;20023;-84
2023/08/11 06:48:03;;;;;;;3.10;1.30;;;20.10;97.50;;;;;;4958126;28;20033;-81
2023/08/11 06:50:29;;;;;;;3.22;1.20;;;20.20;97.50;;;;;;4963901;28;20417;-83
2023/08/11 06:52:54;;;;;;;1.47;1.10;;;20.40;97.60;;;;;;4931835;28;20065;-84
2023/08/11 06:55:20;;;;;;;1.80;1.20;;;20.50;97.60;;;;;;4944688;28;20465;-84
2023/08/11 06:57:46;;;;;;;1.73;1.20;;;20.50;97.70;;;;;;4967479;28;20685;-82
2023/08/11 07:00:13;;;;;;;1.47;1.20;;;20.60;97.70;;;;;;4924284;28;20025;-82
2023/08/11 07:02:39;;;;;;;1.60;1.30;;;;;;;;;;4938156;28;20257;-84
2023/08/11 07:05:05;;;;;;;1.75;1.17;;;20.80;97.50;;;;;;4958488;28;20051;-81
2023/08/11 07:07:31;;;;;;;2.00;1.40;;;21.70;98.40;;;;;;4943514;28;20032;-85
2023/08/11 07:09:57;;;;;;;2.33;1.40;;;21.30;98.10;;;;;;4955444;28;20308;-83
2023/08/11 07:12:23;;;;;;;2.30;1.13;;;21.10;97.90;;;;;;4946743;28;20038;-84
2023/08/11 07:14:49;;;;;;;3.05;1.40;;;21.80;98.30;;;;;;4951008;28;20050;-84
2023/08/11 07:17:15;;;;;;;2.30;1.30;;;21.30;98.00;;;;;;4942544;28;20026;-84
2023/08/11 07:19:41;;;;;;;2.77;1.33;;;21.40;98.00;;;;;;4939899;28;20141;-85
2023/08/11 07:22:07;;;;;;;2.30;1.25;;;21.60;98.20;;;;;;4961966;28;20268;-83
2023/08/11 07:24:33;;;;;;;2.03;1.30;;;21.60;98.20;;;;;;4953191;28;20034;-83
2023/08/11 07:26:59;;;;;;;1.90;1.33;;;21.70;98.20;;;;;;4966372;28;20093;-83
2023/08/11 07:29:25;;;;;;;1.80;1.20;;;21.90;98.20;;;;;;4964518;28;20031;-83
2023/08/11 07:31:50;;;;;;;1.93;1.50;;;22.00;98.30;;;;;;4918846;28;20255;-84
2023/08/11 07:34:17;;;;;;;2.42;1.20;;;22.10;98.30;;;;;;4975533;28;20057;-83
2023/08/11 07:36:43;;;;;;;1.90;1.40;;;22.20;98.30;;;;;;4951249;28;20027;-83
2023/08/11 07:39:09;;;;;;;2.58;1.60;;;22.40;98.40;;;;;;4927778;28;20169;-83
2023/08/11 07:41:38;;;;;;;1.87;1.30;;;22.50;98.30;;;;;;4980488;28;20025;-83
2023/08/11 07:44:04;;;;;;;1.70;1.30;;;22.60;98.10;;;;;;4942643;28;20510;-83
2023/08/11 07:46:30;;;;;;;2.13;1.30;;;22.80;98.40;;;;;;4938244;28;20051;-84
2023/08/11 07:48:56;;;;;;;1.70;1.40;;;22.90;98.50;;;;;;4937887;28;20041;-85
2023/08/11 07:51:22;;;;;;;2.43;1.23;;;23.00;98.50;;;;;;4964290;28;20404;-82
2023/08/11 07:53:49;;;;;;;2.20;1.45;;;23.20;98.60;;;;;;4957735;28;20046;-85
2023/08/11 07:56:15;;;;;;;2.58;1.40;;;23.30;98.60;;;;;;4954661;28;20236;-84
2023/08/11 07:58:41;;;;;;;2.30;1.60;;;23.50;98.80;;;;;;4960378;28;20030;-84
2023/08/11 08:01:08;;;;;;;1.60;1.43;;;23.60;99.10;;;;;;4946071;28;20037;-85
2023/08/11 08:03:35;;;;;;;2.33;1.40;;;23.90;99.30;;;;;;4946583;28;20084;-83
2023/08/11 08:06:05;;;;;;;2.83;1.67;;;24.10;99.50;;;;;;4943684;28;20421;-83
2023/08/11 08:08:33;;;;;;;3.10;1.65;;;24.40;99.30;;;;;;4945409;28;20030;-83
2023/08/11 08:11:00;;;;;;;2.38;1.60;;;24.60;99.40;;;;;;4949598;28;20026;-83
2023/08/11 08:13:26;;;;;;;1.93;1.47;;;24.80;99.20;;;;;;4950097;28;20023;-82
2023/08/11 08:15:52;;;;;;;2.40;1.42;;;25.00;99.30;;;;;;4951929;28;20021;-86
2023/08/11 08:18:20;;;;;;;2.30;1.50;;;25.30;99.50;;;;;;4922223;28;20756;-84
2023/08/11 08:20:46;;;;;;;2.00;1.47;;;25.50;99.90;;;;;;4944496;28;20022;-84
2023/08/11 08:23:12;;;;;;;1.50;1.38;;;25.80;99.90;;;;;;4949872;28;20237;-84
2023/08/11 08:25:40;;;;;;;2.65;1.75;;;26.20;99.90;;;;;;4949468;28;20045;-84
2023/08/11 08:28:06;;;;;;;2.15;1.60;;;26.60;99.90;;;;;;4942445;28;20061;-84
2023/08/11 08:30:32;;;;;;;2.20;1.70;;;27.20;99.90;;;;;;4944872;28;20046;-83
2023/08/11 08:32:58;;;;;;;1.95;1.73;;;27.60;99.90;;;;;;4951256;28;20037;-83
2023/08/11 08:35:24;;;;;;;2.40;1.88;;;28.20;99.90;;;;;;4920941;28;20057;-83
2023/08/11 08:37:49;;;;;;;2.20;1.77;;;28.70;99.90;;;;;;4943847;28;20030;-84
2023/08/11 08:40:15;;;;;;;1.70;1.60;;;29.20;99.90;;;;;;4959700;28;20406;-83
2023/08/11 08:42:42;;;;;;;1.92;1.80;;;29.60;99.30;;;;;;4937602;28;20042;-84
2023/08/11 08:45:08;;;;;;;2.10;1.67;;;29.90;98.30;;;;;;4966702;28;20057;-83
2023/08/11 08:47:35;;;;;;;1.80;1.48;;;30.00;97.50;;;;;;4959991;28;20026;-84
2023/08/11 08:50:03;;;;;;;2.72;1.55;;;30.20;97.20;;;;;;4934820;28;22783;-84
2023/08/11 08:52:30;;;;;;;3.58;1.55;;;30.40;97.20;;;;;;4950603;28;20022;-85
2023/08/11 08:54:57;;;;;;;3.22;1.80;;;30.50;97.50;;;;;;4949196;28;20483;-84
2023/08/11 08:57:26;;;;;;;2.70;1.73;;;30.80;97.90;;;;;;4926046;28;20026;-85
2023/08/11 08:59:53;;;;;;;2.20;1.60;;;31.10;97.10;;;;;;4949185;28;20093;-86
2023/08/11 09:02:19;;;;;;;2.05;1.80;;;31.50;98.10;;;;;;4966586;28;20053;-85
2023/08/11 09:04:47;;;;;;;5.68;1.92;;;31.90;97.40;;;;;;4922982;28;20046;-85
2023/08/11 09:07:13;;;;;;;2.35;1.92;;;32.20;96.90;;;;;;4946026;28;20216;-83
2023/08/11 09:09:39;;;;;;;2.20;1.70;;;32.60;96.80;;;;;;4976940;28;20038;-83
2023/08/11 09:12:05;;;;;;;2.60;1.98;;;32.90;96.60;;;;;;4954017;28;20265;-86
2023/08/11 09:14:31;;;;;;;2.33;2.10;;;33.10;96.20;;;;;;4942403;28;20441;-85
2023/08/11 09:16:59;;;;;;;2.00;1.80;;;33.50;95.90;;;;;;4955211;28;20287;-86
2023/08/11 09:19:25;;;;;;;2.20;2.00;;;33.70;94.50;;;;;;4934847;28;20023;-83
2023/08/11 09:21:52;;;;;;;2.47;1.80;;;34.00;94.90;;;;;;4930153;28;20030;-83
2023/08/11 09:24:18;;;;;;;3.40;2.00;;;34.20;94.60;;;;;;4946181;28;20049;-82
2023/08/11 09:26:45;;;;;;;2.50;2.30;;;34.40;94.40;;;;;;4975173;28;20034;-84
2023/08/11 09:29:14;;;;;;;2.25;1.88;;;34.60;93.70;;;;;;4957245;28;20266;-84
2023/08/11 09:31:41;;;;;;;2.47;2.03;;;34.80;92.50;;;;;;4939875;28;20030;-86
2023/08/11 09:34:14;;;;;;;2.43;1.90;;;34.90;93.20;;;;;;4932517;28;20422;-85
2023/08/11 09:36:42;;;;;;;2.72;2.00;;;35.00;91.50;;;;;;4920943;28;20031;-84
2023/08/11 09:39:09;;;;;;;3.03;2.20;;;35.10;92.60;;;;;;4945019;28;20496;-85
2023/08/11 09:41:43;;;;;;;2.40;2.20;;;35.20;92.50;;;;;;4964517;28;20037;-85
2023/08/11 09:44:17;;;;;;;2.20;1.88;;;35.30;90.70;;;;;;4933825;28;20644;-86
2023/08/11 09:46:44;;;;;;;2.60;2.20;;;35.40;92.40;;;;;;4936013;28;20022;-86
2023/08/11 09:49:10;;;;;;;2.63;2.10;;;35.50;92.50;;;;;;4939929;28;20082;-86
2023/08/11 09:51:37;;;;;;;2.92;2.30;;;35.60;92.40;;;;;;4944328;28;20058;-84
2023/08/11 09:54:06;;;;;;;3.10;2.38;;;35.70;92.10;;;;;;4945268;28;20232;-84
2023/08/11 09:56:43;;;;;;;2.75;2.15;;;35.80;91.40;;;;;;4946813;28;20030;-84
2023/08/11 09:59:22;;;;;;;3.17;2.23;;;35.90;87.60;;;;;;4935471;28;20305;-88
2023/08/11 10:01:51;;;;;;;2.63;2.17;;;36.10;90.40;;;;;;4966519;28;20395;-85
2023/08/11 10:04:56;;;;;;;3.08;2.30;;;36.30;90.80;;;;;;4959849;28;20582;-86
2023/08/11 10:07:29;;;;;;;2.80;2.60;;;36.50;82.00;;;;;;4941180;28;20063;-82
2023/08/11 10:09:59;;;;;;;2.60;2.40;;;36.60;90.30;;;;;;4953238;28;20050;-84
2023/08/11 10:12:25;;;;;;;2.57;2.20;;;36.70;89.00;;;;;;4946504;28;20045;-85
2023/08/11 10:14:51;;;;;;;2.80;2.20;;;36.80;89.80;;;;;;4964039;28;20031;-83
2023/08/11 10:17:18;;;;;;;2.67;2.47;;;36.90;89.10;;;;;;4947189;28;20041;-85
2023/08/11 10:19:44;;;;;;;3.75;2.58;;;37.10;89.20;;;;;;4964754;28;20041;-83
2023/08/11 10:22:11;;;;;;;4.82;2.58;;;37.20;87.60;;;;;;4947452;28;20034;-84
2023/08/11 10:24:37;;;;;;;2.50;2.30;;;37.40;87.20;;;;;;4936876;28;20702;-85
2023/08/11 10:27:05;;;;;;;2.50;2.30;;;37.50;86.60;;;;;;4959634;28;20030;-86
2023/08/11 10:29:31;;;;;;;2.42;2.22;;;37.70;85.50;;;;;;4950352;28;20042;-82
2023/08/11 10:31:58;;;;;;;2.35;2.15;;;37.80;85.20;;;;;;4959984;28;20045;-83
2023/08/11 10:34:26;;;;;;;2.70;2.50;;;38.00;84.00;;;;;;4971699;28;20030;-87
2023/08/11 10:36:56;;;;;;;2.80;2.50;;;38.20;83.40;;;;;;4963191;28;20029;-84
2023/08/11 10:39:23;;;;;;;2.90;2.70;;;38.30;80.90;;;;;;4915116;28;20575;-85
2023/08/11 10:41:49;;;;;;;2.70;2.50;;;38.40;82.30;;;;;;4947555;28;20034;-84
2023/08/11 10:44:26;;;;;;;2.70;2.50;;;38.50;81.20;;;;;;4941169;28;20032;-84
2023/08/11 10:46:52;;;;;;;2.58;2.38;;;38.70;77.20;;;;;;4963060;28;20122;-84
2023/08/11 10:49:21;;;;;;;2.53;2.33;;;38.80;80.40;;;;;;4978279;28;20506;-86
2023/08/11 10:51:47;;;;;;;2.60;2.40;;;38.80;79.10;;;;;;4963967;28;20050;-85
2023/08/11 10:54:24;;;;;;;2.97;2.67;;;38.90;78.70;;;;;;4921153;28;20035;-84
2023/08/11 10:56:51;;;;;;;2.50;2.30;;;38.90;72.60;;;;;;4966387;28;20026;-83
2023/08/11 10:59:30;;;;;;;3.03;2.77;;;39.10;76.30;;;;;;4936704;28;20034;-84
2023/08/11 11:01:56;;;;;;;2.83;2.63;;;39.10;70.60;;;;;;4965899;28;20033;-83
2023/08/11 11:04:29;;;;;;;3.05;2.40;;;39.10;75.20;;;;;;4956518;28;20077;-84
2023/08/11 11:06:56;;;;;;;2.80;2.60;;;39.10;73.40;;;;;;4960328;28;20069;-85
2023/08/11 11:09:22;;;;;;;3.00;2.70;;;39.10;74.20;;;;;;4935597;28;20080;-85
2023/08/11 11:11:50;;;;;;;2.80;2.60;;;39.10;73.60;;;;;;4941229;28;20026;-85
2023/08/11 11:14:17;;;;;;;2.67;2.30;;;39.10;73.60;;;;;;4955070;28;20026;-85
2023/08/11 11:16:44;;;;;;;2.80;2.42;;;39.20;72.40;;;;;;4955517;28;20066;-83
2023/08/11 11:19:10;;;;;;;2.70;2.50;;;39.20;72.90;;;;;;4964016;28;20133;-83
2023/08/11 11:21:38;;;;;;;2.85;2.58;;;39.20;72.40;;;;;;4950009;28;20053;-85
2023/08/11 11:24:04;;;;;;;3.67;2.67;;;39.30;70.90;;;;;;4948880;28;26727;-85
2023/08/11 11:26:32;;;;;;;2.90;2.60;;;39.30;72.60;;;;;;4939558;28;20388;-85
2023/08/11 11:29:02;;;;;;;2.40;2.20;;;39.30;70.70;;;;;;4954615;28;20275;-85
2023/08/11 11:31:31;;;;;;;2.35;2.15;;;39.20;69.60;;;;;;4960311;28;20393;-84
2023/08/11 11:33:57;;;;;;;2.80;2.50;;;39.20;67.20;;;;;;4949291;28;20127;-84
2023/08/11 11:36:23;;;;;;;2.47;1.98;;;39.00;67.80;;;;;;4961871;28;20037;-84
2023/08/11 11:38:51;;;;;;;2.40;2.20;;;38.90;67.60;;;;;;4914654;28;20045;-87
2023/08/11 11:41:18;;;;;;;2.47;2.27;;;38.70;66.90;;;;;;4952133;28;20058;-86
2023/08/11 11:43:46;;;;;;;2.28;2.08;;;38.50;66.50;;;;;;4951465;28;20046;-85
2023/08/11 11:46:15;;;;;;;3.00;2.10;;;38.40;65.80;;;;;;4959790;28;20037;-85
2023/08/11 11:48:46;;;;;;;2.55;2.33;;;38.20;65.80;;;;;;4945998;28;20845;-85
2023/08/11 11:51:13;;;;;;;2.25;2.05;;;38.10;66.10;;;;;;4967005;28;20752;-85
2023/08/11 11:53:39;;;;;;;2.90;1.90;;;38.00;66.90;;;;;;4937638;28;20122;-88
2023/08/11 11:56:05;;;;;;;2.50;2.30;;;38.00;67.10;;;;;;4943358;28;20412;-85
2023/08/11 11:58:33;;;;;;;2.42;2.00;;;37.90;66.90;;;;;;4941238;28;20030;-84
2023/08/11 12:01:13;;;;;;;2.30;2.10;;;37.90;67.20;;;;;;4937433;28;20436;-84
2023/08/11 12:03:39;;;;;;;2.20;2.00;;;37.90;63.70;;;;;;4944290;28;20545;-85
2023/08/11 12:06:06;;;;;;;2.30;2.10;;;37.90;67.20;;;;;;4932749;28;20045;-86
2023/08/11 12:08:34;;;;;;;2.40;2.20;;;37.90;66.90;;;;;;4951440;28;20030;-85
2023/08/11 12:11:01;;;;;;;1.70;1.60;;;38.00;66.60;;;;;;4948531;28;20038;-85
2023/08/11 12:13:27;;;;;;;2.10;1.98;;;38.00;66.10;;;;;;4938142;28;20587;-84
2023/08/11 12:15:53;;;;;;;2.30;2.10;;;37.90;65.80;;;;;;4946342;28;20031;-85
2023/08/11 12:18:19;;;;;;;2.30;2.10;;;37.90;66.00;;;;;;4950172;28;20171;-83
2023/08/11 12:20:46;;;;;;;2.83;2.10;;;37.90;65.70;;;;;;4958142;28;20019;-83
2023/08/11 12:23:11;;;;;;;2.58;2.20;;;37.90;65.50;;;;;;4932911;28;20038;-83
2023/08/11 12:25:38;;;;;;;2.20;2.00;;;37.80;65.20;;;;;;4916941;28;20128;-84
2023/08/11 12:28:04;;;;;;;2.22;2.03;;;37.70;64.70;;;;;;4952012;28;20497;-85
2023/08/11 12:30:30;;;;;;;2.33;2.13;;;37.60;64.60;;;;;;4951343;28;20042;-85
2023/08/11 12:32:56;;;;;;;2.33;2.13;;;37.60;64.70;;;;;;4965593;28;20026;-87
2023/08/11 12:35:22;;;;;;;2.10;1.80;;;37.50;65.00;;;;;;4953301;28;21114;-85
2023/08/11 12:37:48;;;;;;;2.50;2.30;;;37.40;64.50;;;;;;4970480;28;20061;-84
2023/08/11 12:40:14;;;;;;;2.90;2.00;;;37.30;64.20;;;;;;4950712;28;20103;-85
2023/08/11 12:42:40;;;;;;;2.67;1.90;;;37.20;64.00;;;;;;4919373;28;20085;-83
2023/08/11 12:45:10;;;;;;;2.20;1.90;;;37.00;63.80;;;;;;4930573;28;20240;-85
2023/08/11 12:47:36;;;;;;;1.80;1.70;;;36.90;63.80;;;;;;4955282;28;20019;-84